sensor_id;sensor_type;location;lat;lon;timestamp;temperature;humidity
38860;DHT22;24609;48.316;16.174;2023-09-08T00:01:38;12.60;99.90
38860;DHT22;24609;48.316;16.174;2023-09-08T00:04:04;12.70;99.90
38860;DHT22;24609;48.316;16.174;2023-09-08T00:06:29;12.70;99.90
38860;DHT22;24609;48.316;16.174;2023-09-08T00:08:55;12.60;99.90
38860;DHT22;24609;48.316;16.174;2023-09-08T00:11:21;12.60;99.90
38860;DHT22;24609;48.316;16.174;2023-09-08T00:13:46;12.50;99.90
38860;DHT22;24609;48.316;16.174;2023-09-08T00:16:12;12.50;99.90
38860;DHT22;24609;48.316;16.174;2023-09-08T00:18:38;12.40;99.90
38860;DHT22;24609;48.316;16.174;2023-09-08T00:21:03;12.40;99.90
38860;DHT22;24609;48.316;16.174;2023-09-08T00:23:29;12.50;99.90
38860;DHT22;24609;48.316;16.174;2023-09-08T00:25:55;12.50;99.90
38860;DHT22;24609;48.316;16.174;2023-09-08T00:28:20;12.50;99.90
38860;DHT22;24609;48.316;16.174;2023-09-08T00:30:46;12.50;99.90
38860;DHT22;24609;48.316;16.174;2023-09-08T00:33:12;12.50;99.90
38860;DHT22;24609;48.316;16.174;2023-09-08T00:35:39;12.50;99.90
38860;DHT22;24609;48.316;16.174;2023-09-08T00:38:05;12.50;99.90
38860;DHT22;24609;48.316;16.174;2023-09-08T00:40:31;12.50;99.90
38860;DHT22;24609;48.316;16.174;2023-09-08T00:42:58;12.40;99.90
38860;DHT22;24609;48.316;16.174;2023-09-08T00:45:23;12.40;99.90
38860;DHT22;24609;48.316;16.174;2023-09-08T00:47:51;12.40;99.90
38860;DHT22;24609;48.316;16.174;2023-09-08T00:50:17;12.40;99.90
38860;DHT22;24609;48.316;16.174;2023-09-08T00:52:43;12.40;99.90
38860;DHT22;24609;48.316;16.174;2023-09-08T00:55:09;12.40;99.90
38860;DHT22;24609;48.316;16.174;2023-09-08T00:57:34;12.40;99.90
38860;DHT22;24609;48.316;16.174;2023-09-08T01:00:00;12.40;99.90
38860;DHT22;24609;48.316;16.174;2023-09-08T01:02:26;12.40;99.90
38860;DHT22;24609;48.316;16.174;2023-09-08T01:04:52;12.40;99.90
38860;DHT22;24609;48.316;16.174;2023-09-08T01:07:19;12.50;99.90
38860;DHT22;24609;48.316;16.174;2023-09-08T01:09:46;12.50;99.90
38860;DHT22;24609;48.316;16.174;2023-09-08T01:12:12;12.50;99.90
38860;DHT22;24609;48.316;16.174;2023-09-08T01:14:38;12.40;99.90
38860;DHT22;24609;48.316;16.174;2023-09-08T01:17:04;12.50;99.90
38860;DHT22;24609;48.316;16.174;2023-09-08T01:19:29;12.50;99.90
38860;DHT22;24609;48.316;16.174;2023-09-08T01:25:09;12.40;99.90
38860;DHT22;24609;48.316;16.174;2023-09-08T01:27:40;12.40;99.90
38860;DHT22;24609;48.316;16.174;2023-09-08T01:30:07;12.30;99.90
38860;DHT22;24609;48.316;16.174;2023-09-08T01:32:34;12.30;99.90
38860;DHT22;24609;48.316;16.174;2023-09-08T01:35:00;12.30;99.90
38860;DHT22;24609;48.316;16.174;2023-09-08T01:37:26;12.30;99.90
38860;DHT22;24609;48.316;16.174;2023-09-08T01:39:52;12.30;99.90
38860;DHT22;24609;48.316;16.174;2023-09-08T01:42:18;12.30;99.90
38860;DHT22;24609;48.316;16.174;2023-09-08T01:44:43;12.40;99.90
38860;DHT22;24609;48.316;16.174;2023-09-08T01:47:09;12.30;99.90
38860;DHT22;24609;48.316;16.174;2023-09-08T01:49:35;12.40;99.90
38860;DHT22;24609;48.316;16.174;2023-09-08T01:52:00;12.50;99.90
38860;DHT22;24609;48.316;16.174;2023-09-08T01:54:26;12.40;99.90
38860;DHT22;24609;48.316;16.174;2023-09-08T01:56:51;12.40;99.90
38860;DHT22;24609;48.316;16.174;2023-09-08T01:59:17;12.30;99.90
38860;DHT22;24609;48.316;16.174;2023-09-08T02:01:43;12.30;99.90
38860;DHT22;24609;48.316;16.174;2023-09-08T02:04:09;12.20;99.90
38860;DHT22;24609;48.316;16.174;2023-09-08T02:06:34;12.10;99.90
38860;DHT22;24609;48.316;16.174;2023-09-08T02:09:00;12.10;99.90
38860;DHT22;24609;48.316;16.174;2023-09-08T02:11:26;12.10;99.90
38860;DHT22;24609;48.316;16.174;2023-09-08T02:13:52;12.10;99.90
38860;DHT22;24609;48.316;16.174;2023-09-08T02:16:18;12.20;99.90
38860;DHT22;24609;48.316;16.174;2023-09-08T02:18:44;12.20;99.90
38860;DHT22;24609;48.316;16.174;2023-09-08T02:21:10;12.20;99.90
38860;DHT22;24609;48.316;16.174;2023-09-08T02:23:36;12.20;99.90
38860;DHT22;24609;48.316;16.174;2023-09-08T02:26:02;12.20;99.90
38860;DHT22;24609;48.316;16.174;2023-09-08T02:28:28;12.20;99.90
38860;DHT22;24609;48.316;16.174;2023-09-08T02:30:54;12.20;99.90
38860;DHT22;24609;48.316;16.174;2023-09-08T02:33:20;12.20;99.90
38860;DHT22;24609;48.316;16.174;2023-09-08T02:35:46;12.20;99.90
38860;DHT22;24609;48.316;16.174;2023-09-08T02:38:12;12.30;99.90
38860;DHT22;24609;48.316;16.174;2023-09-08T02:40:37;12.20;99.90
38860;DHT22;24609;48.316;16.174;2023-09-08T02:43:03;12.20;99.90
38860;DHT22;24609;48.316;16.174;2023-09-08T02:45:29;12.20;99.90
38860;DHT22;24609;48.316;16.174;2023-09-08T02:47:55;12.20;99.90
38860;DHT22;24609;48.316;16.174;2023-09-08T02:50:21;12.10;99.90
38860;DHT22;24609;48.316;16.174;2023-09-08T02:52:47;12.10;99.90
38860;DHT22;24609;48.316;16.174;2023-09-08T02:55:13;12.10;99.90
38860;DHT22;24609;48.316;16.174;2023-09-08T02:57:39;12.10;99.90
38860;DHT22;24609;48.316;16.174;2023-09-08T03:00:05;12.10;99.90
38860;DHT22;24609;48.316;16.174;2023-09-08T03:02:33;12.10;99.90
38860;DHT22;24609;48.316;16.174;2023-09-08T03:04:59;12.20;99.90
38860;DHT22;24609;48.316;16.174;2023-09-08T03:07:26;12.30;99.90
38860;DHT22;24609;48.316;16.174;2023-09-08T03:09:52;12.20;99.90
38860;DHT22;24609;48.316;16.174;2023-09-08T03:12:18;12.20;99.90
38860;DHT22;24609;48.316;16.174;2023-09-08T03:14:43;12.10;99.90
38860;DHT22;24609;48.316;16.174;2023-09-08T03:17:10;12.10;99.90
38860;DHT22;24609;48.316;16.174;2023-09-08T03:19:36;12.30;99.90
38860;DHT22;24609;48.316;16.174;2023-09-08T03:22:02;12.20;99.90
38860;DHT22;24609;48.316;16.174;2023-09-08T03:24:28;12.10;99.90
38860;DHT22;24609;48.316;16.174;2023-09-08T03:26:53;12.10;99.90
38860;DHT22;24609;48.316;16.174;2023-09-08T03:29:19;12.20;99.90
38860;DHT22;24609;48.316;16.174;2023-09-08T03:31:45;12.20;99.90
38860;DHT22;24609;48.316;16.174;2023-09-08T03:34:10;12.20;99.90
38860;DHT22;24609;48.316;16.174;2023-09-08T03:36:36;12.30;99.90
38860;DHT22;24609;48.316;16.174;2023-09-08T03:39:03;12.40;99.90
38860;DHT22;24609;48.316;16.174;2023-09-08T03:41:28;12.70;99.90
38860;DHT22;24609;48.316;16.174;2023-09-08T03:43:54;12.90;99.90
38860;DHT22;24609;48.316;16.174;2023-09-08T03:46:20;13.20;99.90
38860;DHT22;24609;48.316;16.174;2023-09-08T03:48:46;13.80;99.90
38860;DHT22;24609;48.316;16.174;2023-09-08T03:51:12;14.60;99.90
38860;DHT22;24609;48.316;16.174;2023-09-08T03:53:37;15.80;1.00
38860;DHT22;24609;48.316;16.174;2023-09-08T03:56:03;16.10;99.90
38860;DHT22;24609;48.316;16.174;2023-09-08T03:58:29;16.50;99.90
38860;DHT22;24609;48.316;16.174;2023-09-08T04:00:54;16.80;9.40
38860;DHT22;24609;48.316;16.174;2023-09-08T04:03:20;16.80;1.00
38860;DHT22;24609;48.316;16.174;2023-09-08T04:05:46;16.70;1.00
38860;DHT22;24609;48.316;16.174;2023-09-08T04:08:12;16.90;99.90
38860;DHT22;24609;48.316;16.174;2023-09-08T04:10:37;17.00;1.00
38860;DHT22;24609;48.316;16.174;2023-09-08T04:13:03;17.00;99.90
38860;DHT22;24609;48.316;16.174;2023-09-08T04:15:29;17.00;28.00
38860;DHT22;24609;48.316;16.174;2023-09-08T04:17:55;16.80;99.90
38860;DHT22;24609;48.316;16.174;2023-09-08T04:20:22;16.90;99.90
38860;DHT22;24609;48.316;16.174;2023-09-08T04:22:48;17.00;99.90
38860;DHT22;24609;48.316;16.174;2023-09-08T04:25:14;17.00;99.90
38860;DHT22;24609;48.316;16.174;2023-09-08T04:27:40;16.90;38.10
38860;DHT22;24609;48.316;16.174;2023-09-08T04:30:06;17.00;1.00
38860;DHT22;24609;48.316;16.174;2023-09-08T04:32:32;17.10;1.00
38860;DHT22;24609;48.316;16.174;2023-09-08T04:34:58;17.10;99.90
38860;DHT22;24609;48.316;16.174;2023-09-08T04:37:24;17.20;99.90
38860;DHT22;24609;48.316;16.174;2023-09-08T04:39:49;17.20;99.90
38860;DHT22;24609;48.316;16.174;2023-09-08T04:42:15;17.20;99.90
38860;DHT22;24609;48.316;16.174;2023-09-08T04:44:41;17.30;99.90
38860;DHT22;24609;48.316;16.174;2023-09-08T04:47:06;17.30;99.90
38860;DHT22;24609;48.316;16.174;2023-09-08T04:49:32;17.30;99.90
38860;DHT22;24609;48.316;16.174;2023-09-08T04:51:58;17.30;99.90
38860;DHT22;24609;48.316;16.174;2023-09-08T04:54:23;17.30;99.90
38860;DHT22;24609;48.316;16.174;2023-09-08T04:56:53;17.30;99.90
38860;DHT22;24609;48.316;16.174;2023-09-08T04:59:19;17.40;99.90
38860;DHT22;24609;48.316;16.174;2023-09-08T05:01:44;17.50;99.90
38860;DHT22;24609;48.316;16.174;2023-09-08T05:04:11;17.60;99.90
38860;DHT22;24609;48.316;16.174;2023-09-08T05:06:37;17.70;99.90
38860;DHT22;24609;48.316;16.174;2023-09-08T05:09:03;17.70;99.90
38860;DHT22;24609;48.316;16.174;2023-09-08T05:11:28;17.70;99.90
38860;DHT22;24609;48.316;16.174;2023-09-08T05:13:54;17.60;99.90
38860;DHT22;24609;48.316;16.174;2023-09-08T05:16:20;17.60;99.90
38860;DHT22;24609;48.316;16.174;2023-09-08T05:19:01;17.70;99.90
38860;DHT22;24609;48.316;16.174;2023-09-08T05:21:27;17.70;99.90
38860;DHT22;24609;48.316;16.174;2023-09-08T05:23:53;17.70;99.90
38860;DHT22;24609;48.316;16.174;2023-09-08T05:26:18;17.80;99.90
38860;DHT22;24609;48.316;16.174;2023-09-08T05:28:44;18.00;99.90
38860;DHT22;24609;48.316;16.174;2023-09-08T05:31:09;18.00;99.90
38860;DHT22;24609;48.316;16.174;2023-09-08T05:33:35;18.00;99.90
38860;DHT22;24609;48.316;16.174;2023-09-08T05:36:01;18.10;99.90
38860;DHT22;24609;48.316;16.174;2023-09-08T05:38:26;18.10;99.90
38860;DHT22;24609;48.316;16.174;2023-09-08T05:40:53;18.20;99.90
38860;DHT22;24609;48.316;16.174;2023-09-08T05:43:19;18.30;99.90
38860;DHT22;24609;48.316;16.174;2023-09-08T05:45:44;18.40;99.90
38860;DHT22;24609;48.316;16.174;2023-09-08T05:48:10;18.50;99.90
38860;DHT22;24609;48.316;16.174;2023-09-08T05:50:36;18.50;99.90
38860;DHT22;24609;48.316;16.174;2023-09-08T05:53:02;18.60;99.90
38860;DHT22;24609;48.316;16.174;2023-09-08T05:55:27;18.70;99.90
38860;DHT22;24609;48.316;16.174;2023-09-08T05:57:53;18.70;99.90
38860;DHT22;24609;48.316;16.174;2023-09-08T06:00:19;18.80;99.90
38860;DHT22;24609;48.316;16.174;2023-09-08T06:02:45;19.00;99.90
38860;DHT22;24609;48.316;16.174;2023-09-08T06:05:11;19.00;99.90
38860;DHT22;24609;48.316;16.174;2023-09-08T06:07:36;19.10;99.90
38860;DHT22;24609;48.316;16.174;2023-09-08T06:10:02;19.20;99.90
38860;DHT22;24609;48.316;16.174;2023-09-08T06:12:28;19.30;99.90
38860;DHT22;24609;48.316;16.174;2023-09-08T06:14:54;19.50;99.90
38860;DHT22;24609;48.316;16.174;2023-09-08T06:17:20;19.50;99.90
38860;DHT22;24609;48.316;16.174;2023-09-08T06:19:45;19.70;99.90
38860;DHT22;24609;48.316;16.174;2023-09-08T06:22:11;20.20;99.90
38860;DHT22;24609;48.316;16.174;2023-09-08T06:24:37;20.80;99.90
38860;DHT22;24609;48.316;16.174;2023-09-08T06:27:02;21.10;99.90
38860;DHT22;24609;48.316;16.174;2023-09-08T06:29:28;21.40;99.90
38860;DHT22;24609;48.316;16.174;2023-09-08T06:31:54;21.60;99.90
38860;DHT22;24609;48.316;16.174;2023-09-08T06:34:19;21.80;99.60
38860;DHT22;24609;48.316;16.174;2023-09-08T06:36:47;22.10;99.30
38860;DHT22;24609;48.316;16.174;2023-09-08T06:39:13;22.50;97.50
38860;DHT22;24609;48.316;16.174;2023-09-08T06:41:39;22.70;96.80
38860;DHT22;24609;48.316;16.174;2023-09-08T06:44:05;23.00;96.10
38860;DHT22;24609;48.316;16.174;2023-09-08T06:46:31;22.90;95.60
38860;DHT22;24609;48.316;16.174;2023-09-08T06:48:56;23.40;94.70
38860;DHT22;24609;48.316;16.174;2023-09-08T06:51:22;23.70;93.90
38860;DHT22;24609;48.316;16.174;2023-09-08T06:53:55;24.10;92.50
38860;DHT22;24609;48.316;16.174;2023-09-08T06:56:25;24.00;91.20
38860;DHT22;24609;48.316;16.174;2023-09-08T06:58:51;24.00;91.40
38860;DHT22;24609;48.316;16.174;2023-09-08T07:01:17;24.10;91.00
38860;DHT22;24609;48.316;16.174;2023-09-08T07:03:43;24.70;90.40
38860;DHT22;24609;48.316;16.174;2023-09-08T07:06:08;24.70;90.10
38860;DHT22;24609;48.316;16.174;2023-09-08T07:08:34;24.30;88.10
38860;DHT22;24609;48.316;16.174;2023-09-08T07:11:00;24.20;89.60
38860;DHT22;24609;48.316;16.174;2023-09-08T07:13:26;24.30;89.70
38860;DHT22;24609;48.316;16.174;2023-09-08T07:15:51;24.30;90.00
38860;DHT22;24609;48.316;16.174;2023-09-08T07:18:17;24.00;90.90
38860;DHT22;24609;48.316;16.174;2023-09-08T07:20:47;24.10;90.00
38860;DHT22;24609;48.316;16.174;2023-09-08T07:23:13;24.20;88.90
38860;DHT22;24609;48.316;16.174;2023-09-08T07:25:39;24.30;89.80
38860;DHT22;24609;48.316;16.174;2023-09-08T07:28:05;24.30;88.60
38860;DHT22;24609;48.316;16.174;2023-09-08T07:30:32;24.30;88.00
38860;DHT22;24609;48.316;16.174;2023-09-08T07:32:57;24.40;89.40
38860;DHT22;24609;48.316;16.174;2023-09-08T07:35:23;24.80;88.20
38860;DHT22;24609;48.316;16.174;2023-09-08T07:37:49;24.80;85.10
38860;DHT22;24609;48.316;16.174;2023-09-08T07:40:15;25.00;87.90
38860;DHT22;24609;48.316;16.174;2023-09-08T07:42:41;25.10;86.10
38860;DHT22;24609;48.316;16.174;2023-09-08T07:45:07;25.10;84.00
38860;DHT22;24609;48.316;16.174;2023-09-08T07:47:35;25.20;84.60
38860;DHT22;24609;48.316;16.174;2023-09-08T07:50:27;25.30;83.20
38860;DHT22;24609;48.316;16.174;2023-09-08T07:52:55;25.60;82.40
38860;DHT22;24609;48.316;16.174;2023-09-08T07:55:22;25.80;77.90
38860;DHT22;24609;48.316;16.174;2023-09-08T07:57:49;26.00;78.80
38860;DHT22;24609;48.316;16.174;2023-09-08T08:00:16;26.80;75.70
38860;DHT22;24609;48.316;16.174;2023-09-08T08:02:45;27.50;70.60
38860;DHT22;24609;48.316;16.174;2023-09-08T08:05:12;28.40;65.50
38860;DHT22;24609;48.316;16.174;2023-09-08T08:07:42;28.70;59.10
38860;DHT22;24609;48.316;16.174;2023-09-08T08:10:08;28.50;58.10
38860;DHT22;24609;48.316;16.174;2023-09-08T08:12:34;28.20;58.30
38860;DHT22;24609;48.316;16.174;2023-09-08T08:15:00;28.90;53.70
38860;DHT22;24609;48.316;16.174;2023-09-08T08:17:25;29.90;52.50
38860;DHT22;24609;48.316;16.174;2023-09-08T08:19:55;30.60;48.00
38860;DHT22;24609;48.316;16.174;2023-09-08T08:22:21;30.70;43.90
38860;DHT22;24609;48.316;16.174;2023-09-08T08:24:47;30.40;44.40
38860;DHT22;24609;48.316;16.174;2023-09-08T08:27:13;30.90;42.80
38860;DHT22;24609;48.316;16.174;2023-09-08T08:29:39;30.70;42.00
38860;DHT22;24609;48.316;16.174;2023-09-08T08:32:05;30.80;41.80
38860;DHT22;24609;48.316;16.174;2023-09-08T08:34:31;31.20;38.90
38860;DHT22;24609;48.316;16.174;2023-09-08T08:36:57;30.20;37.50
38860;DHT22;24609;48.316;16.174;2023-09-08T08:39:22;30.30;39.50
38860;DHT22;24609;48.316;16.174;2023-09-08T08:41:48;31.40;36.70
38860;DHT22;24609;48.316;16.174;2023-09-08T08:44:15;32.00;36.50
38860;DHT22;24609;48.316;16.174;2023-09-08T08:46:43;31.60;35.60
38860;DHT22;24609;48.316;16.174;2023-09-08T08:49:11;32.30;34.10
38860;DHT22;24609;48.316;16.174;2023-09-08T08:51:39;33.00;31.60
38860;DHT22;24609;48.316;16.174;2023-09-08T08:54:06;32.70;30.60
38860;DHT22;24609;48.316;16.174;2023-09-08T08:56:32;33.10;32.00
38860;DHT22;24609;48.316;16.174;2023-09-08T08:58:58;33.20;29.50
38860;DHT22;24609;48.316;16.174;2023-09-08T09:01:26;34.80;29.30
38860;DHT22;24609;48.316;16.174;2023-09-08T09:03:52;34.40;26.90
38860;DHT22;24609;48.316;16.174;2023-09-08T09:06:18;33.20;28.30
38860;DHT22;24609;48.316;16.174;2023-09-08T09:08:45;33.20;27.70
38860;DHT22;24609;48.316;16.174;2023-09-08T09:11:12;33.70;28.10
38860;DHT22;24609;48.316;16.174;2023-09-08T09:13:38;34.10;27.70
38860;DHT22;24609;48.316;16.174;2023-09-08T09:16:04;33.10;27.90
38860;DHT22;24609;48.316;16.174;2023-09-08T09:18:33;33.90;27.50
38860;DHT22;24609;48.316;16.174;2023-09-08T09:21:01;33.70;26.50
38860;DHT22;24609;48.316;16.174;2023-09-08T09:25:54;32.90;26.50
38860;DHT22;24609;48.316;16.174;2023-09-08T09:28:20;33.00;26.80
38860;DHT22;24609;48.316;16.174;2023-09-08T09:30:47;33.60;25.70
38860;DHT22;24609;48.316;16.174;2023-09-08T09:33:14;35.10;25.70
38860;DHT22;24609;48.316;16.174;2023-09-08T09:35:57;35.50;23.60
38860;DHT22;24609;48.316;16.174;2023-09-08T09:38:26;36.40;22.40
38860;DHT22;24609;48.316;16.174;2023-09-08T09:40:52;36.40;22.10
38860;DHT22;24609;48.316;16.174;2023-09-08T09:43:22;35.20;23.10
38860;DHT22;24609;48.316;16.174;2023-09-08T09:45:48;36.00;21.30
38860;DHT22;24609;48.316;16.174;2023-09-08T09:48:14;36.70;20.50
38860;DHT22;24609;48.316;16.174;2023-09-08T09:50:41;35.50;20.90
38860;DHT22;24609;48.316;16.174;2023-09-08T09:53:20;36.60;20.80
38860;DHT22;24609;48.316;16.174;2023-09-08T09:55:46;37.80;18.90
38860;DHT22;24609;48.316;16.174;2023-09-08T09:58:12;37.30;18.00
38860;DHT22;24609;48.316;16.174;2023-09-08T10:00:38;37.10;18.00
38860;DHT22;24609;48.316;16.174;2023-09-08T10:03:06;36.50;17.80
38860;DHT22;24609;48.316;16.174;2023-09-08T10:05:33;37.00;17.50
38860;DHT22;24609;48.316;16.174;2023-09-08T10:07:59;36.60;16.40
38860;DHT22;24609;48.316;16.174;2023-09-08T10:10:27;36.30;17.50
38860;DHT22;24609;48.316;16.174;2023-09-08T10:12:57;36.50;17.00
38860;DHT22;24609;48.316;16.174;2023-09-08T10:15:27;37.30;15.90
38860;DHT22;24609;48.316;16.174;2023-09-08T10:17:55;38.30;14.80
38860;DHT22;24609;48.316;16.174;2023-09-08T10:20:23;37.60;14.90
38860;DHT22;24609;48.316;16.174;2023-09-08T10:22:54;38.90;15.50
38860;DHT22;24609;48.316;16.174;2023-09-08T10:25:24;38.50;14.40
38860;DHT22;24609;48.316;16.174;2023-09-08T10:27:50;38.50;13.40
38860;DHT22;24609;48.316;16.174;2023-09-08T10:30:16;36.30;12.50
38860;DHT22;24609;48.316;16.174;2023-09-08T10:32:43;36.60;14.30
38860;DHT22;24609;48.316;16.174;2023-09-08T10:35:09;38.00;14.80
38860;DHT22;24609;48.316;16.174;2023-09-08T10:37:35;37.80;15.10
38860;DHT22;24609;48.316;16.174;2023-09-08T10:40:22;37.20;13.60
38860;DHT22;24609;48.316;16.174;2023-09-08T10:42:48;37.60;13.80
38860;DHT22;24609;48.316;16.174;2023-09-08T10:45:16;38.90;11.90
38860;DHT22;24609;48.316;16.174;2023-09-08T10:50:17;38.60;11.90
38860;DHT22;24609;48.316;16.174;2023-09-08T10:52:43;38.90;11.60
38860;DHT22;24609;48.316;16.174;2023-09-08T10:55:11;38.40;12.20
38860;DHT22;24609;48.316;16.174;2023-09-08T10:57:44;38.10;12.60
38860;DHT22;24609;48.316;16.174;2023-09-08T11:00:11;38.70;12.80
38860;DHT22;24609;48.316;16.174;2023-09-08T11:02:48;40.10;11.50
38860;DHT22;24609;48.316;16.174;2023-09-08T11:05:15;40.40;10.10
38860;DHT22;24609;48.316;16.174;2023-09-08T11:07:42;39.40;10.40
38860;DHT22;24609;48.316;16.174;2023-09-08T11:10:09;38.40;10.90
38860;DHT22;24609;48.316;16.174;2023-09-08T11:12:35;38.70;10.40
38860;DHT22;24609;48.316;16.174;2023-09-08T11:15:03;37.90;10.80
38860;DHT22;24609;48.316;16.174;2023-09-08T11:17:33;39.90;9.90
38860;DHT22;24609;48.316;16.174;2023-09-08T11:20:00;40.40;9.30
38860;DHT22;24609;48.316;16.174;2023-09-08T11:22:26;40.40;9.10
38860;DHT22;24609;48.316;16.174;2023-09-08T11:25:01;39.70;10.40
38860;DHT22;24609;48.316;16.174;2023-09-08T11:27:30;40.90;9.10
38860;DHT22;24609;48.316;16.174;2023-09-08T11:29:57;39.10;9.50
38860;DHT22;24609;48.316;16.174;2023-09-08T11:32:23;37.20;9.70
38860;DHT22;24609;48.316;16.174;2023-09-08T11:34:50;36.70;9.70
38860;DHT22;24609;48.316;16.174;2023-09-08T11:37:17;39.40;9.60
38860;DHT22;24609;48.316;16.174;2023-09-08T11:39:44;40.40;8.50
38860;DHT22;24609;48.316;16.174;2023-09-08T11:42:12;38.20;8.60
38860;DHT22;24609;48.316;16.174;2023-09-08T11:44:38;37.20;10.40
38860;DHT22;24609;48.316;16.174;2023-09-08T11:47:08;36.80;10.30
38860;DHT22;24609;48.316;16.174;2023-09-08T11:49:41;38.00;9.20
38860;DHT22;24609;48.316;16.174;2023-09-08T11:52:07;36.50;10.00
38860;DHT22;24609;48.316;16.174;2023-09-08T11:54:36;36.90;9.60
38860;DHT22;24609;48.316;16.174;2023-09-08T11:57:04;40.30;9.30
38860;DHT22;24609;48.316;16.174;2023-09-08T11:59:32;39.50;7.90
38860;DHT22;24609;48.316;16.174;2023-09-08T12:01:59;40.00;6.90
38860;DHT22;24609;48.316;16.174;2023-09-08T12:04:25;42.40;6.80
38860;DHT22;24609;48.316;16.174;2023-09-08T12:06:54;40.80;7.30
38860;DHT22;24609;48.316;16.174;2023-09-08T12:09:23;40.00;7.80
38860;DHT22;24609;48.316;16.174;2023-09-08T12:11:49;41.30;7.40
38860;DHT22;24609;48.316;16.174;2023-09-08T12:14:15;40.30;6.40
38860;DHT22;24609;48.316;16.174;2023-09-08T12:16:42;40.50;7.80
38860;DHT22;24609;48.316;16.174;2023-09-08T12:19:10;41.80;6.00
38860;DHT22;24609;48.316;16.174;2023-09-08T12:21:59;41.90;6.00
38860;DHT22;24609;48.316;16.174;2023-09-08T12:25:17;41.30;6.70
38860;DHT22;24609;48.316;16.174;2023-09-08T12:27:36;40.50;6.90
38860;DHT22;24609;48.316;16.174;2023-09-08T12:30:03;39.20;6.80
38860;DHT22;24609;48.316;16.174;2023-09-08T12:32:32;39.70;8.10
38860;DHT22;24609;48.316;16.174;2023-09-08T12:34:59;40.50;7.90
38860;DHT22;24609;48.316;16.174;2023-09-08T12:37:26;40.50;6.60
38860;DHT22;24609;48.316;16.174;2023-09-08T12:39:56;39.20;6.50
38860;DHT22;24609;48.316;16.174;2023-09-08T12:42:22;39.00;7.50
38860;DHT22;24609;48.316;16.174;2023-09-08T12:44:51;37.80;7.70
38860;DHT22;24609;48.316;16.174;2023-09-08T12:47:17;37.70;7.80
38860;DHT22;24609;48.316;16.174;2023-09-08T12:49:43;37.70;7.40
38860;DHT22;24609;48.316;16.174;2023-09-08T12:52:08;38.30;7.10
38860;DHT22;24609;48.316;16.174;2023-09-08T12:54:35;36.90;7.10
38860;DHT22;24609;48.316;16.174;2023-09-08T12:57:01;37.40;7.40
38860;DHT22;24609;48.316;16.174;2023-09-08T12:59:27;37.30;8.20
38860;DHT22;24609;48.316;16.174;2023-09-08T13:01:53;38.00;6.90
38860;DHT22;24609;48.316;16.174;2023-09-08T13:04:19;37.90;6.80
38860;DHT22;24609;48.316;16.174;2023-09-08T13:06:44;37.40;6.90
38860;DHT22;24609;48.316;16.174;2023-09-08T13:09:11;36.00;8.10
38860;DHT22;24609;48.316;16.174;2023-09-08T13:11:37;35.80;8.60
38860;DHT22;24609;48.316;16.174;2023-09-08T13:14:02;35.90;8.80
38860;DHT22;24609;48.316;16.174;2023-09-08T13:16:28;38.80;6.50
38860;DHT22;24609;48.316;16.174;2023-09-08T13:18:54;37.40;6.00
38860;DHT22;24609;48.316;16.174;2023-09-08T13:21:20;37.00;7.30
38860;DHT22;24609;48.316;16.174;2023-09-08T13:23:46;37.30;6.30
38860;DHT22;24609;48.316;16.174;2023-09-08T13:26:12;37.10;7.20
38860;DHT22;24609;48.316;16.174;2023-09-08T13:28:38;38.10;6.20
38860;DHT22;24609;48.316;16.174;2023-09-08T13:31:03;39.80;5.30
38860;DHT22;24609;48.316;16.174;2023-09-08T13:33:29;40.90;4.80
38860;DHT22;24609;48.316;16.174;2023-09-08T13:35:55;39.30;3.60
38860;DHT22;24609;48.316;16.174;2023-09-08T13:38:21;38.10;4.30
38860;DHT22;24609;48.316;16.174;2023-09-08T13:40:47;39.40;5.10
38860;DHT22;24609;48.316;16.174;2023-09-08T13:43:12;38.80;5.60
38860;DHT22;24609;48.316;16.174;2023-09-08T13:45:38;38.80;5.60
38860;DHT22;24609;48.316;16.174;2023-09-08T13:48:04;38.80;6.30
38860;DHT22;24609;48.316;16.174;2023-09-08T13:50:31;38.80;5.50
38860;DHT22;24609;48.316;16.174;2023-09-08T13:52:57;39.10;5.30
38860;DHT22;24609;48.316;16.174;2023-09-08T13:55:23;37.40;5.40
38860;DHT22;24609;48.316;16.174;2023-09-08T13:57:50;38.40;5.30
38860;DHT22;24609;48.316;16.174;2023-09-08T14:00:19;38.80;5.10
38860;DHT22;24609;48.316;16.174;2023-09-08T14:02:45;37.80;5.50
38860;DHT22;24609;48.316;16.174;2023-09-08T14:05:10;36.70;6.00
38860;DHT22;24609;48.316;16.174;2023-09-08T14:07:36;33.70;9.30
38860;DHT22;24609;48.316;16.174;2023-09-08T14:10:03;30.70;11.70
38860;DHT22;24609;48.316;16.174;2023-09-08T14:12:33;29.60;14.10
38860;DHT22;24609;48.316;16.174;2023-09-08T14:14:59;29.10;14.90
38860;DHT22;24609;48.316;16.174;2023-09-08T14:17:24;28.70;15.50
38860;DHT22;24609;48.316;16.174;2023-09-08T14:19:50;28.60;15.80
38860;DHT22;24609;48.316;16.174;2023-09-08T14:22:16;28.50;16.00
38860;DHT22;24609;48.316;16.174;2023-09-08T14:24:42;28.40;15.60
38860;DHT22;24609;48.316;16.174;2023-09-08T14:27:07;28.20;16.20
38860;DHT22;24609;48.316;16.174;2023-09-08T14:29:35;28.10;14.90
38860;DHT22;24609;48.316;16.174;2023-09-08T14:32:00;28.00;15.90
38860;DHT22;24609;48.316;16.174;2023-09-08T14:34:26;28.00;16.50
38860;DHT22;24609;48.316;16.174;2023-09-08T14:36:52;27.90;16.70
38860;DHT22;24609;48.316;16.174;2023-09-08T14:39:17;28.00;17.70
38860;DHT22;24609;48.316;16.174;2023-09-08T14:41:48;27.90;16.10
38860;DHT22;24609;48.316;16.174;2023-09-08T14:44:15;27.90;16.90
38860;DHT22;24609;48.316;16.174;2023-09-08T14:46:41;27.90;17.60
38860;DHT22;24609;48.316;16.174;2023-09-08T14:49:07;27.90;17.20
38860;DHT22;24609;48.316;16.174;2023-09-08T14:51:32;27.90;17.20
38860;DHT22;24609;48.316;16.174;2023-09-08T14:53:58;27.80;17.40
38860;DHT22;24609;48.316;16.174;2023-09-08T14:56:24;27.80;18.10
38860;DHT22;24609;48.316;16.174;2023-09-08T14:58:49;27.80;18.00
38860;DHT22;24609;48.316;16.174;2023-09-08T15:01:15;27.60;17.50
38860;DHT22;24609;48.316;16.174;2023-09-08T15:03:41;27.60;17.40
38860;DHT22;24609;48.316;16.174;2023-09-08T15:06:06;27.60;18.30
38860;DHT22;24609;48.316;16.174;2023-09-08T15:08:34;27.50;18.10
38860;DHT22;24609;48.316;16.174;2023-09-08T15:11:00;27.50;18.30
38860;DHT22;24609;48.316;16.174;2023-09-08T15:13:25;27.40;18.20
38860;DHT22;24609;48.316;16.174;2023-09-08T15:15:51;27.40;17.90
38860;DHT22;24609;48.316;16.174;2023-09-08T15:18:17;27.30;18.20
38860;DHT22;24609;48.316;16.174;2023-09-08T15:20:54;27.30;18.50
38860;DHT22;24609;48.316;16.174;2023-09-08T15:23:20;27.20;18.10
38860;DHT22;24609;48.316;16.174;2023-09-08T15:25:57;27.10;18.20